createdAt,value
2019-04-30T00:01:28.840Z,15.03
2019-04-30T00:04:17.104Z,13.73
2019-04-30T00:06:46.681Z,13.87
2019-04-30T00:09:19.255Z,13.63
2019-04-30T00:11:50.565Z,13.17
2019-04-30T00:14:19.698Z,13.30
2019-04-30T00:16:49.039Z,13.43
2019-04-30T00:19:19.883Z,13.03
2019-04-30T00:21:57.073Z,12.53
2019-04-30T00:24:20.427Z,13.07
2019-04-30T00:26:52.378Z,12.77
2019-04-30T00:29:26.975Z,13.00
2019-04-30T00:31:51.944Z,12.73
2019-04-30T00:34:21.295Z,12.77
2019-04-30T00:36:50.661Z,12.73
2019-04-30T00:39:22.421Z,11.77
2019-04-30T00:41:51.771Z,12.60
2019-04-30T00:44:26.836Z,12.13
2019-04-30T00:46:52.181Z,12.77
2019-04-30T00:49:23.068Z,12.37
2019-04-30T00:51:56.706Z,11.87
2019-04-30T00:54:29.368Z,12.03
2019-04-30T00:56:57.522Z,11.43
2019-04-30T00:59:25.801Z,12.40
2019-04-30T01:02:19.894Z,10.80
2019-04-30T01:04:50.805Z,11.10
2019-04-30T01:07:20.248Z,10.73
2019-04-30T01:09:50.044Z,10.50
2019-04-30T01:12:27.723Z,10.90
2019-04-30T01:14:50.696Z,11.30
2019-04-30T01:17:20.050Z,11.20
2019-04-30T01:19:51.126Z,10.70
2019-04-30T01:22:27.847Z,10.37
2019-04-30T01:24:51.726Z,10.90
2019-04-30T01:27:21.070Z,10.23
2019-04-30T01:29:50.537Z,9.73
2019-04-30T01:32:21.196Z,10.60
2019-04-30T01:34:53.866Z,9.10
2019-04-30T01:37:28.315Z,9.40
2019-04-30T01:39:52.704Z,9.67
2019-04-30T01:42:22.065Z,9.70
2019-04-30T01:44:53.907Z,9.53
2019-04-30T01:47:27.694Z,8.87
2019-04-30T01:49:55.785Z,9.80
2019-04-30T01:52:29.258Z,8.60
2019-04-30T01:54:58.658Z,8.73
2019-04-30T01:57:45.737Z,8.57
2019-04-30T02:00:24.894Z,7.80
2019-04-30T02:02:54.243Z,8.70
2019-04-30T02:05:23.586Z,9.17
2019-04-30T02:07:52.935Z,8.83
2019-04-30T02:10:22.351Z,8.03
2019-04-30T02:12:51.726Z,8.80
2019-04-30T02:15:21.063Z,9.03
2019-04-30T02:17:50.586Z,8.13
2019-04-30T02:20:20.014Z,8.13
2019-04-30T02:22:49.410Z,8.07
2019-04-30T02:25:19.525Z,7.87
2019-04-30T02:27:49.019Z,7.80
2019-04-30T02:30:20.861Z,8.43
2019-04-30T02:32:52.647Z,8.30
2019-04-30T02:35:40.739Z,8.00
2019-04-30T02:38:19.895Z,7.77
2019-04-30T02:40:51.384Z,7.80
2019-04-30T02:43:23.242Z,8.43
2019-04-30T02:45:54.984Z,7.50
2019-04-30T02:48:25.650Z,7.20
2019-04-30T02:51:00.235Z,7.47
2019-04-30T02:54:12.228Z,7.90
2019-04-30T02:56:43.673Z,7.27
2019-04-30T02:59:13.003Z,7.70
2019-04-30T03:01:42.357Z,7.60
2019-04-30T03:04:11.697Z,7.43
2019-04-30T03:06:41.026Z,7.30
2019-04-30T03:09:10.939Z,7.30
2019-04-30T03:11:41.013Z,8.03
2019-04-30T03:14:11.005Z,6.50
2019-04-30T03:17:00.222Z,7.33
2019-04-30T03:19:47.074Z,6.77
2019-04-30T03:22:20.307Z,6.97
2019-04-30T03:24:50.211Z,6.17
2019-04-30T03:27:20.653Z,6.47
2019-04-30T03:29:50.764Z,6.00
2019-04-30T03:32:22.392Z,6.07
2019-04-30T03:34:52.086Z,6.20
2019-04-30T03:37:21.553Z,6.30
2019-04-30T03:39:50.887Z,6.57
2019-04-30T03:42:20.247Z,7.13
2019-04-30T03:44:49.900Z,6.30
2019-04-30T03:47:20.253Z,6.93
2019-04-30T03:49:50.043Z,8.10
2019-04-30T03:52:19.853Z,10.07
2019-04-30T03:54:49.622Z,9.30
2019-04-30T03:57:20.351Z,9.37
2019-04-30T03:59:50.195Z,9.80
2019-04-30T04:02:44.460Z,9.43
2019-04-30T04:05:22.052Z,10.80
2019-04-30T04:07:59.947Z,12.07
2019-04-30T04:10:46.896Z,12.13
2019-04-30T04:13:16.259Z,10.27
2019-04-30T04:15:45.643Z,10.13
2019-04-30T04:18:14.967Z,12.07
2019-04-30T04:20:44.316Z,11.10
2019-04-30T04:23:13.673Z,10.90
2019-04-30T04:25:43.066Z,10.60
2019-04-30T04:28:12.447Z,10.07
2019-04-30T04:30:43.018Z,10.80
2019-04-30T04:33:12.458Z,11.13
2019-04-30T04:35:41.801Z,10.30
2019-04-30T04:38:12.750Z,10.23
2019-04-30T04:40:42.289Z,10.57
2019-04-30T04:43:11.582Z,11.20
2019-04-30T04:45:43.823Z,9.90
2019-04-30T04:48:11.994Z,10.40
2019-04-30T04:50:41.368Z,10.73
2019-04-30T04:53:11.662Z,11.73
2019-04-30T04:55:41.146Z,11.37
2019-04-30T04:58:12.769Z,14.23
2019-04-30T05:00:41.600Z,12.17
2019-04-30T05:03:25.361Z,13.77
2019-04-30T05:05:54.723Z,14.70
2019-04-30T05:08:24.071Z,14.67
2019-04-30T05:10:53.438Z,14.70
2019-04-30T05:13:22.756Z,15.17
2019-04-30T05:15:52.116Z,15.53
2019-04-30T05:18:22.791Z,15.60
2019-04-30T05:20:52.215Z,16.63
2019-04-30T05:23:21.991Z,16.63
2019-04-30T05:25:51.453Z,17.30
2019-04-30T05:28:20.811Z,18.30
2019-04-30T05:30:50.157Z,18.03
2019-04-30T05:33:19.530Z,17.30
2019-04-30T05:35:49.592Z,16.30
2019-04-30T05:38:19.090Z,16.10
2019-04-30T05:40:49.534Z,16.63
2019-04-30T05:43:19.309Z,15.97
2019-04-30T05:45:49.193Z,16.57
2019-04-30T05:48:18.741Z,15.83
2019-04-30T05:50:51.501Z,16.37
2019-04-30T05:53:19.200Z,15.47
2019-04-30T05:55:49.382Z,16.67
2019-04-30T05:58:19.800Z,15.37
2019-04-30T06:00:49.937Z,17.07
2019-04-30T06:03:27.536Z,16.33
2019-04-30T06:05:50.469Z,15.97
2019-04-30T06:08:21.819Z,16.73
2019-04-30T06:10:56.483Z,17.63
2019-04-30T06:13:31.940Z,17.03
2019-04-30T06:16:09.527Z,16.93
2019-04-30T06:18:38.993Z,17.33
2019-04-30T06:21:09.174Z,18.50
2019-04-30T06:23:39.304Z,17.20
2019-04-30T06:26:10.743Z,18.27
2019-04-30T06:28:41.608Z,17.70
2019-04-30T06:31:11.054Z,18.27
2019-04-30T06:33:40.518Z,16.90
2019-04-30T06:36:11.173Z,17.67
2019-04-30T06:38:40.589Z,17.13
2019-04-30T06:41:09.926Z,16.33
2019-04-30T06:43:39.619Z,16.80
2019-04-30T06:46:09.307Z,17.47
2019-04-30T06:48:41.856Z,18.20
2019-04-30T06:51:10.883Z,17.03
2019-04-30T06:53:40.310Z,18.00
2019-04-30T06:56:09.787Z,17.07
2019-04-30T06:58:41.414Z,17.70
2019-04-30T07:01:10.382Z,17.83
2019-04-30T07:03:41.047Z,18.43
2019-04-30T07:06:10.386Z,17.30
2019-04-30T07:09:01.571Z,18.73
2019-04-30T07:11:56.037Z,18.70
2019-04-30T07:14:25.421Z,17.33
2019-04-30T07:16:54.753Z,18.77
2019-04-30T07:19:32.870Z,18.50
2019-04-30T07:21:55.248Z,18.73
2019-04-30T07:24:24.608Z,18.00
2019-04-30T07:26:54.674Z,18.03
2019-04-30T07:29:25.122Z,17.83
2019-04-30T07:31:54.527Z,17.77
2019-04-30T07:34:23.841Z,17.07
2019-04-30T07:37:10.857Z,17.33
2019-04-30T07:39:31.217Z,16.47
2019-04-30T07:41:55.415Z,17.33
2019-04-30T07:44:33.886Z,16.77
2019-04-30T07:46:55.850Z,16.60
2019-04-30T07:49:25.234Z,17.33
2019-04-30T07:51:55.261Z,17.20
2019-04-30T07:54:25.046Z,16.27
2019-04-30T07:56:54.423Z,17.37
2019-04-30T07:59:23.797Z,15.77
2019-04-30T08:02:06.321Z,15.57
2019-04-30T08:04:41.969Z,16.17
2019-04-30T08:07:11.371Z,15.00
2019-04-30T08:09:42.337Z,16.97
2019-04-30T08:12:21.365Z,16.30
2019-04-30T08:14:42.946Z,16.17
2019-04-30T08:17:12.332Z,16.27
2019-04-30T08:19:41.708Z,15.87
2019-04-30T08:22:11.058Z,15.47
2019-04-30T08:24:40.458Z,15.60
2019-04-30T08:27:09.854Z,15.60
2019-04-30T08:29:39.548Z,16.13
2019-04-30T08:32:09.134Z,15.53
2019-04-30T08:34:39.403Z,16.03
2019-04-30T08:37:17.091Z,15.43
2019-04-30T08:39:39.859Z,15.63
2019-04-30T08:42:09.226Z,14.90
2019-04-30T08:44:39.603Z,15.67
2019-04-30T08:47:09.136Z,14.63
2019-04-30T08:49:40.441Z,14.87
2019-04-30T08:52:10.672Z,14.77
2019-04-30T08:54:40.362Z,14.63
2019-04-30T08:57:09.727Z,14.73
2019-04-30T08:59:39.556Z,15.93
2019-04-30T09:02:15.997Z,15.67
2019-04-30T09:04:39.948Z,15.53
2019-04-30T09:07:10.240Z,15.80
2019-04-30T09:09:40.671Z,16.00
2019-04-30T09:12:10.026Z,15.77
2019-04-30T09:14:40.621Z,16.80
2019-04-30T09:17:10.089Z,17.40
2019-04-30T09:19:39.468Z,15.83
2019-04-30T09:22:14.892Z,15.97
2019-04-30T09:24:39.928Z,15.93
2019-04-30T09:27:10.809Z,15.50
2019-04-30T09:29:40.252Z,17.03
2019-04-30T09:32:09.645Z,17.43
2019-04-30T09:34:40.370Z,17.03
2019-04-30T09:37:09.853Z,16.70
2019-04-30T09:39:39.400Z,16.23
2019-04-30T09:42:09.255Z,17.83
2019-04-30T09:44:39.116Z,17.03
2019-04-30T09:47:08.954Z,17.03
2019-04-30T09:49:38.819Z,16.73
2019-04-30T09:52:11.033Z,17.40
2019-04-30T09:54:40.818Z,17.83
2019-04-30T09:57:11.487Z,16.33
2019-04-30T09:59:40.901Z,16.77
2019-04-30T10:02:10.673Z,16.27
2019-04-30T10:04:40.671Z,15.97
2019-04-30T10:07:10.276Z,15.53
2019-04-30T10:09:39.646Z,16.10
2019-04-30T10:12:14.415Z,14.27
2019-04-30T10:14:43.879Z,15.70
2019-04-30T10:17:25.790Z,15.20
2019-04-30T10:19:55.130Z,13.30
2019-04-30T10:22:24.489Z,14.50
2019-04-30T10:24:53.881Z,14.20
2019-04-30T10:27:23.328Z,14.80
2019-04-30T10:29:53.518Z,13.93
2019-04-30T10:32:22.887Z,14.87
2019-04-30T10:34:52.225Z,14.30
2019-04-30T10:37:21.798Z,14.10
2019-04-30T10:39:51.160Z,15.10
2019-04-30T10:42:20.610Z,13.80
2019-04-30T10:44:50.093Z,14.70
2019-04-30T10:47:19.543Z,14.50
2019-04-30T10:49:48.918Z,14.33
2019-04-30T10:52:19.229Z,13.87
2019-04-30T10:54:49.589Z,14.40
2019-04-30T10:57:19.068Z,14.30
2019-04-30T10:59:48.759Z,13.57
2019-04-30T11:02:18.116Z,13.90
2019-04-30T11:04:47.520Z,14.13
2019-04-30T11:07:18.528Z,13.33
2019-04-30T11:09:49.320Z,13.20
2019-04-30T11:12:19.365Z,13.60
2019-04-30T11:14:48.813Z,12.97
2019-04-30T11:17:19.763Z,13.20
2019-04-30T11:19:49.656Z,12.87
2019-04-30T11:22:19.345Z,13.90
2019-04-30T11:24:58.952Z,13.53
2019-04-30T11:27:20.980Z,13.40
2019-04-30T11:29:50.996Z,14.10
2019-04-30T11:32:23.064Z,13.10
2019-04-30T11:34:52.510Z,14.23
2019-04-30T11:37:21.894Z,13.50
2019-04-30T11:39:51.313Z,13.13
2019-04-30T11:42:20.655Z,12.67
2019-04-30T11:44:50.112Z,12.87
2019-04-30T11:47:29.351Z,12.63
2019-04-30T11:49:58.703Z,13.47
2019-04-30T11:52:28.065Z,13.13
2019-04-30T11:54:59.488Z,12.67
2019-04-30T11:57:29.810Z,13.23
2019-04-30T11:59:59.322Z,12.03
2019-04-30T12:02:41.272Z,11.90
2019-04-30T12:05:11.777Z,12.20
2019-04-30T12:08:06.025Z,11.83
2019-04-30T12:11:03.342Z,12.67
2019-04-30T12:13:33.724Z,11.93
2019-04-30T12:16:03.103Z,11.90
2019-04-30T12:18:32.430Z,11.00
2019-04-30T12:21:01.793Z,10.17
2019-04-30T12:23:31.127Z,9.87
2019-04-30T12:26:02.869Z,10.20
2019-04-30T12:28:31.630Z,9.23
2019-04-30T12:31:00.991Z,8.13
2019-04-30T12:33:30.371Z,8.10
2019-04-30T12:35:59.760Z,8.73
2019-04-30T12:38:29.883Z,8.30
2019-04-30T12:40:59.339Z,7.97
2019-04-30T12:43:28.701Z,8.47
2019-04-30T12:46:04.853Z,8.33
2019-04-30T12:48:43.837Z,7.40
2019-04-30T12:51:45.327Z,8.17
2019-04-30T12:54:12.384Z,7.77
2019-04-30T12:57:00.669Z,7.60
2019-04-30T12:59:30.055Z,7.97
2019-04-30T13:01:59.455Z,8.03
2019-04-30T13:04:29.352Z,7.83
2019-04-30T13:07:01.637Z,8.53
2019-04-30T13:09:30.987Z,7.47
2019-04-30T13:12:01.527Z,8.20
2019-04-30T13:14:31.947Z,7.83
2019-04-30T13:17:01.506Z,8.60
2019-04-30T13:19:30.873Z,8.03
2019-04-30T13:22:00.211Z,8.63
2019-04-30T13:24:31.385Z,8.50
2019-04-30T13:27:00.676Z,8.40
2019-04-30T13:29:35.156Z,7.60
2019-04-30T13:32:04.722Z,7.30
2019-04-30T13:34:51.230Z,8.03
2019-04-30T13:37:20.600Z,7.60
2019-04-30T13:40:08.896Z,8.13
2019-04-30T13:42:41.666Z,7.60
2019-04-30T13:45:11.298Z,7.53
2019-04-30T13:47:40.658Z,7.67
2019-04-30T13:50:10.697Z,7.53
2019-04-30T13:52:40.059Z,7.53
2019-04-30T13:55:10.992Z,7.67
2019-04-30T13:57:40.436Z,7.63
2019-04-30T14:00:12.840Z,7.23
2019-04-30T14:02:47.157Z,8.07
2019-04-30T14:05:17.583Z,7.60
2019-04-30T14:08:04.749Z,8.10
2019-04-30T14:10:37.026Z,7.07
2019-04-30T14:13:08.243Z,8.50
2019-04-30T14:15:38.101Z,8.77
2019-04-30T14:18:09.364Z,7.90
2019-04-30T14:20:38.800Z,7.97
2019-04-30T14:23:08.525Z,8.50
2019-04-30T14:25:39.210Z,7.70
2019-04-30T14:28:09.438Z,7.53
2019-04-30T14:30:39.338Z,8.10
2019-04-30T14:33:09.424Z,6.70
2019-04-30T14:35:38.946Z,6.70
2019-04-30T14:38:09.020Z,7.93
2019-04-30T14:40:40.436Z,7.90
2019-04-30T14:43:31.859Z,8.43
2019-04-30T14:46:33.141Z,8.50
2019-04-30T14:49:22.169Z,8.93
2019-04-30T14:51:51.833Z,9.20
2019-04-30T14:54:26.884Z,9.00
2019-04-30T14:57:00.534Z,9.50
2019-04-30T14:59:48.735Z,9.53
2019-04-30T15:02:29.624Z,9.33
2019-04-30T15:04:59.122Z,10.27
2019-04-30T15:07:29.561Z,10.47
2019-04-30T15:09:59.010Z,11.53
2019-04-30T15:12:28.372Z,11.03
2019-04-30T15:14:59.225Z,10.73
2019-04-30T15:17:28.645Z,10.07
2019-04-30T15:19:58.767Z,11.47
2019-04-30T15:22:29.035Z,10.57
2019-04-30T15:24:59.165Z,11.03
2019-04-30T15:27:28.999Z,10.40
2019-04-30T15:29:58.470Z,10.77
2019-04-30T15:32:28.586Z,14.30
2019-04-30T15:34:58.930Z,15.37
2019-04-30T15:37:28.728Z,16.10
2019-04-30T15:39:59.136Z,17.20
2019-04-30T15:42:28.664Z,17.27
2019-04-30T15:44:59.435Z,18.93
2019-04-30T15:47:28.978Z,19.03
2019-04-30T15:49:59.596Z,18.60
2019-04-30T15:52:29.462Z,19.03
2019-04-30T15:54:59.269Z,19.17
2019-04-30T15:57:29.518Z,19.27
2019-04-30T15:59:58.956Z,19.30
2019-04-30T16:05:49.338Z,19.47
2019-04-30T16:08:36.004Z,20.63
2019-04-30T16:11:36.535Z,20.80
2019-04-30T16:14:13.778Z,21.90
2019-04-30T16:16:46.497Z,21.13
2019-04-30T16:19:15.963Z,21.87
2019-04-30T16:21:45.336Z,22.80
2019-04-30T16:24:15.038Z,22.67
2019-04-30T16:26:50.012Z,24.50
2019-04-30T16:29:15.734Z,23.73
2019-04-30T16:31:45.143Z,23.57
2019-04-30T16:34:14.591Z,23.63
2019-04-30T16:36:43.966Z,23.00
2019-04-30T16:39:13.428Z,22.57
2019-04-30T16:41:42.771Z,22.97
2019-04-30T16:44:12.175Z,22.27
2019-04-30T16:46:41.487Z,22.47
2019-04-30T16:49:13.405Z,22.90
2019-04-30T16:51:41.978Z,23.27
2019-04-30T16:54:11.358Z,23.73
2019-04-30T16:56:40.715Z,23.17
2019-04-30T16:59:11.800Z,23.60
2019-04-30T17:01:41.151Z,23.97
2019-04-30T17:04:29.084Z,23.33
2019-04-30T17:07:08.828Z,22.60
2019-04-30T17:09:43.467Z,23.93
2019-04-30T17:12:26.968Z,23.67
2019-04-30T17:15:15.273Z,23.33
2019-04-30T17:17:44.622Z,23.23
2019-04-30T17:20:15.278Z,24.30
2019-04-30T17:22:44.654Z,24.53
2019-04-30T17:25:14.090Z,23.47
2019-04-30T17:27:43.513Z,23.47
2019-04-30T17:30:13.109Z,23.77
2019-04-30T17:32:42.526Z,23.77
2019-04-30T17:35:12.474Z,24.20
2019-04-30T17:37:41.817Z,23.77
2019-04-30T17:40:11.496Z,24.60
2019-04-30T17:42:40.914Z,23.97
2019-04-30T17:45:10.728Z,23.70
2019-04-30T17:47:40.098Z,22.33
2019-04-30T17:50:10.614Z,22.40
2019-04-30T17:52:40.087Z,24.13
2019-04-30T17:55:10.205Z,22.93
2019-04-30T17:57:40.378Z,24.57
2019-04-30T18:00:18.903Z,23.73
2019-04-30T18:02:42.803Z,24.10
2019-04-30T18:05:13.579Z,23.70
2019-04-30T18:07:42.944Z,24.33
2019-04-30T18:10:13.107Z,24.47
2019-04-30T18:12:42.449Z,24.53
2019-04-30T18:15:16.770Z,23.17
2019-04-30T18:17:51.184Z,24.30
2019-04-30T18:20:51.669Z,23.20
2019-04-30T18:23:38.987Z,23.07
2019-04-30T18:26:11.530Z,23.67
2019-04-30T18:28:41.162Z,23.73
2019-04-30T18:31:10.743Z,24.20
2019-04-30T18:33:40.289Z,23.57
2019-04-30T18:36:09.792Z,23.67
2019-04-30T18:38:39.289Z,23.87
2019-04-30T18:41:09.501Z,24.87
2019-04-30T18:43:40.555Z,22.43
2019-04-30T18:46:10.838Z,22.97
2019-04-30T18:48:40.334Z,23.73
2019-04-30T18:51:30.028Z,23.07
2019-04-30T18:53:40.878Z,23.70
2019-04-30T18:56:14.411Z,23.17
2019-04-30T18:58:43.067Z,24.73
2019-04-30T19:01:12.514Z,24.60
2019-04-30T19:03:41.864Z,25.23
2019-04-30T19:06:23.031Z,26.27
2019-04-30T19:08:58.450Z,24.67
2019-04-30T19:11:43.504Z,26.13
2019-04-30T19:14:44.174Z,26.03
2019-04-30T19:17:32.464Z,25.13
2019-04-30T19:20:19.466Z,25.73
2019-04-30T19:22:48.832Z,26.97
2019-04-30T19:25:19.106Z,25.63
2019-04-30T19:27:48.523Z,25.37
2019-04-30T19:30:19.270Z,27.33
2019-04-30T19:32:49.216Z,26.07
2019-04-30T19:35:18.860Z,24.90
2019-04-30T19:37:48.770Z,25.43
2019-04-30T19:40:19.034Z,25.60
2019-04-30T19:42:50.834Z,25.97
2019-04-30T19:45:19.668Z,25.33
2019-04-30T19:47:49.101Z,24.10
2019-04-30T19:50:19.233Z,24.70
2019-04-30T19:52:48.811Z,23.67
2019-04-30T19:55:20.452Z,23.80
2019-04-30T19:57:51.038Z,23.00
2019-04-30T20:00:20.434Z,22.87
2019-04-30T20:02:49.794Z,22.57
2019-04-30T20:05:19.517Z,23.13
2019-04-30T20:07:49.416Z,23.30
2019-04-30T20:10:19.558Z,22.83
2019-04-30T20:12:49.788Z,21.87
2019-04-30T20:15:24.235Z,21.70
2019-04-30T20:17:50.432Z,23.50
2019-04-30T20:20:19.790Z,22.10
2019-04-30T20:22:51.899Z,21.33
2019-04-30T20:25:20.246Z,21.73
2019-04-30T20:27:49.663Z,21.37
2019-04-30T20:30:19.537Z,20.60
2019-04-30T20:32:51.298Z,21.43
2019-04-30T20:35:20.262Z,20.50
2019-04-30T20:38:09.392Z,20.63
2019-04-30T20:40:43.551Z,19.70
2019-04-30T20:43:11.431Z,20.57
2019-04-30T20:45:40.793Z,19.97
2019-04-30T20:48:10.151Z,21.03
2019-04-30T20:50:39.519Z,21.03
2019-04-30T20:53:08.984Z,21.37
2019-04-30T20:55:38.847Z,21.23
2019-04-30T20:58:09.600Z,21.37
2019-04-30T21:00:38.953Z,21.63
2019-04-30T21:03:09.719Z,20.87
2019-04-30T21:05:39.297Z,22.13
2019-04-30T21:08:08.629Z,21.23
2019-04-30T21:10:39.684Z,20.77
2019-04-30T21:13:11.120Z,21.70
2019-04-30T21:15:40.239Z,22.17
2019-04-30T21:18:09.596Z,22.37
2019-04-30T21:20:38.958Z,22.63
2019-04-30T21:23:09.451Z,22.90
2019-04-30T21:25:38.866Z,22.60
2019-04-30T21:28:09.744Z,23.13
2019-04-30T21:30:39.242Z,23.40
2019-04-30T21:33:30.345Z,23.10
2019-04-30T21:36:08.793Z,24.20
2019-04-30T21:38:38.959Z,23.23
2019-04-30T21:41:09.960Z,24.40
2019-04-30T21:43:39.481Z,24.13
2019-04-30T21:46:09.572Z,24.07
2019-04-30T21:48:39.075Z,24.30
2019-04-30T21:51:09.432Z,25.37
2019-04-30T21:53:39.633Z,25.07
2019-04-30T21:56:09.181Z,24.97
2019-04-30T21:58:39.192Z,26.03
2019-04-30T22:01:26.046Z,26.10
2019-04-30T22:03:55.538Z,24.97
2019-04-30T22:06:24.897Z,25.30
2019-04-30T22:08:54.258Z,27.07
2019-04-30T22:11:23.718Z,26.73
2019-04-30T22:13:54.651Z,26.63
2019-04-30T22:16:23.979Z,27.53
2019-04-30T22:18:53.334Z,27.00
2019-04-30T22:21:22.729Z,28.27
2019-04-30T22:23:52.041Z,28.83
2019-04-30T22:26:21.399Z,28.83
2019-04-30T22:28:50.744Z,29.13
2019-04-30T22:31:20.141Z,28.93
2019-04-30T22:33:49.504Z,29.33
2019-04-30T22:36:24.096Z,28.57
2019-04-30T22:39:29.666Z,29.70
2019-04-30T22:42:34.244Z,29.10
2019-04-30T22:45:06.423Z,29.77
2019-04-30T22:47:35.789Z,29.90
2019-04-30T22:50:06.576Z,30.07
2019-04-30T22:52:35.960Z,29.77
2019-04-30T22:55:06.253Z,30.97
2019-04-30T22:57:35.606Z,29.43
2019-04-30T23:00:09.573Z,30.13
2019-04-30T23:02:44.636Z,29.90
2019-04-30T23:05:15.573Z,29.50
2019-04-30T23:07:44.964Z,29.37
2019-04-30T23:10:15.742Z,30.43
2019-04-30T23:12:45.102Z,30.03
2019-04-30T23:15:16.065Z,30.73
2019-04-30T23:17:45.448Z,31.33
2019-04-30T23:20:15.057Z,30.03
2019-04-30T23:22:44.442Z,30.60
2019-04-30T23:25:13.774Z,30.23
2019-04-30T23:27:43.119Z,30.60
2019-04-30T23:30:12.990Z,30.63
2019-04-30T23:32:42.390Z,30.03
2019-04-30T23:35:14.972Z,31.10
2019-04-30T23:37:44.558Z,31.43
2019-04-30T23:40:23.954Z,30.37
2019-04-30T23:42:53.794Z,31.33
2019-04-30T23:45:23.524Z,32.80
2019-04-30T23:47:52.944Z,32.67
2019-04-30T23:50:22.312Z,32.60
2019-04-30T23:52:51.707Z,33.37
2019-04-30T23:55:21.053Z,31.57
2019-04-30T23:57:50.421Z,33.33
